Time;durP1;ratioP1;P1;durP2;ratioP2;P2;SDS_P1;SDS_P2;PMS_P1;PMS_P2;Temp;Humidity;BMP_temperature;BMP_pressure;BME280_temperature;BME280_humidity;BME280_pressure;Samples;Min_cycle;Max_cycle;Signal;HPM_P1;HPM_P2
2023/09/03 00:03:18;;;;;;;15.77;13.43;;;;;;;;;;10337592;28;20454;-84
2023/09/03 00:08:21;;;;;;;20.20;14.10;;;;;;;;;;10337139;28;20528;-83
2023/09/03 00:13:24;;;;;;;16.23;12.52;;;;;;;;;;10340134;28;20903;-83
2023/09/03 00:18:26;;;;;;;15.00;12.60;;;;;;;;;;10337667;28;21134;-83
2023/09/03 00:23:30;;;;;;;14.40;11.60;;;;;;;;;;10337315;28;20445;-83
2023/09/03 00:28:33;;;;;;;16.25;11.55;;;;;;;;;;10341270;28;20531;-83
2023/09/03 00:33:36;;;;;;;14.38;10.98;;;;;;;;;;10320124;28;20475;-83
2023/09/03 00:38:40;;;;;;;12.33;10.77;;;;;;;;;;10340655;28;20995;-83
2023/09/03 00:43:43;;;;;;;12.25;10.95;;;;;;;;;;10332350;28;20456;-83
2023/09/03 00:48:45;;;;;;;14.77;11.07;;;;;;;;;;10334574;28;20527;-83
2023/09/03 00:53:54;;;;;;;12.18;10.50;;;;;;;;;;10341032;28;20446;-83
2023/09/03 00:58:57;;;;;;;12.70;10.73;;;;;;;;;;10342091;28;20497;-83
2023/09/03 01:03:59;;;;;;;12.23;10.45;;;;;;;;;;10333874;28;20438;-83
2023/09/03 01:09:03;;;;;;;12.82;9.85;;;;;;;;;;10340772;28;20462;-83
2023/09/03 01:14:16;;;;;;;11.02;9.00;;;;;;;;;;10343878;28;20423;-83
2023/09/03 01:19:42;;;;;;;11.77;9.98;;;;;;;;;;10337167;28;20419;-82
2023/09/03 01:25:04;;;;;;;12.33;9.53;;;;;;;;;;10341942;28;20903;-82
2023/09/03 01:30:09;;;;;;;12.15;9.73;;;;;;;;;;10338087;28;20468;-82
2023/09/03 01:35:12;;;;;;;10.10;8.93;;;;;;;;;;10338344;28;20401;-82
2023/09/03 01:40:14;;;;;;;10.82;9.15;;;;;;;;;;10342205;28;20446;-82
2023/09/03 01:45:18;;;;;;;11.43;9.25;;;;;;;;;;10339689;28;20440;-83
2023/09/03 01:50:33;;;;;;;11.55;9.18;;;;;;;;;;10341213;28;20490;-83
2023/09/03 01:55:40;;;;;;;10.00;8.93;;;;;;;;;;10344949;28;20420;-82
2023/09/03 02:00:45;;;;;;;12.07;9.52;;;;;;;;;;10327994;28;20852;-83
2023/09/03 02:05:47;;;;;;;12.77;9.80;;;;;;;;;;10334709;28;20417;-83
2023/09/03 02:10:50;;;;;;;10.40;9.10;;;;;;;;;;10340887;28;20531;-83
2023/09/03 02:15:53;;;;;;;13.13;9.85;;;;;;;;;;10339133;28;20415;-83
2023/09/03 02:20:56;;;;;;;12.63;9.70;;;;;;;;;;10338886;28;20467;-83
2023/09/03 02:26:02;;;;;;;14.23;9.60;;;;;;;;;;10339103;28;20419;-83
2023/09/03 02:31:05;;;;;;;10.77;9.60;;;;;;;;;;10330857;28;20420;-83
2023/09/03 02:36:08;;;;;;;10.45;9.35;;;;;;;;;;10337479;28;20484;-83
2023/09/03 02:41:10;;;;;;;10.23;8.63;;;;;;;;;;10339839;28;20533;-82
2023/09/03 02:46:14;;;;;;;12.43;9.18;;;;;;;;;;10331891;28;20477;-83
2023/09/03 02:51:16;;;;;;;10.60;9.13;;;;;;;;;;10337483;28;20409;-83
2023/09/03 02:56:19;;;;;;;11.07;8.67;;;;;;;;;;10339740;28;20432;-83
2023/09/03 03:01:22;;;;;;;12.35;9.25;;;;;;;;;;10337712;28;20450;-83
2023/09/03 03:06:25;;;;;;;10.98;9.05;;;;;;;;;;10333645;28;20500;-83
2023/09/03 03:11:27;;;;;;;10.70;8.70;;;;;;;;;;10334074;28;20441;-82
2023/09/03 03:16:31;;;;;;;12.70;8.57;;;;;;;;;;10340460;28;20476;-83
2023/09/03 03:21:33;;;;;;;9.95;8.02;;;;;;;;;;10334164;28;20471;-83
2023/09/03 03:26:37;;;;;;;9.97;8.40;;;;;;;;;;10335936;28;20946;-83
2023/09/03 03:31:42;;;;;;;9.85;7.68;;;;;;;;;;10331177;28;20444;-82
2023/09/03 03:36:44;;;;;;;10.00;7.63;;;;;;;;;;10331518;28;20413;-83
2023/09/03 03:41:46;;;;;;;10.30;7.47;;;;;;;;;;10338347;28;20586;-82
2023/09/03 03:46:50;;;;;;;8.13;7.20;;;;;;;;;;10331810;28;20444;-83
2023/09/03 03:51:52;;;;;;;10.07;6.97;;;;;;;;;;10337307;28;20832;-83
2023/09/03 03:56:55;;;;;;;9.60;7.47;;;;;;;;;;10336848;28;20416;-83
2023/09/03 04:01:58;;;;;;;9.38;7.38;;;;;;;;;;10329171;28;20415;-83
2023/09/03 04:07:01;;;;;;;9.90;7.67;;;;;;;;;;10336324;28;20475;-83
2023/09/03 04:12:04;;;;;;;9.30;7.97;;;;;;;;;;10338785;28;20452;-82
2023/09/03 04:17:08;;;;;;;10.88;8.13;;;;;;;;;;10337113;28;20419;-82
2023/09/03 04:22:10;;;;;;;10.00;8.13;;;;;;;;;;10336518;28;20413;-83
2023/09/03 04:27:13;;;;;;;11.50;8.70;;;;;;;;;;10331722;28;20448;-82
2023/09/03 04:32:17;;;;;;;12.88;9.45;;;;;;;;;;10339999;28;20416;-82
2023/09/03 04:37:19;;;;;;;10.40;8.67;;;;;;;;;;10342188;28;20420;-82
2023/09/03 04:42:21;;;;;;;10.43;9.23;;;;;;;;;;10341043;28;20411;-82
2023/09/03 04:47:25;;;;;;;12.02;8.80;;;;;;;;;;10340707;28;20527;-83
2023/09/03 04:52:27;;;;;;;11.18;9.35;;;;;;;;;;10343588;28;20444;-83
2023/09/03 04:57:29;;;;;;;12.07;8.70;;;;;;;;;;10342892;28;20417;-82
2023/09/03 05:02:33;;;;;;;13.43;9.13;;;;;;;;;;10336907;28;20420;-81
2023/09/03 05:07:35;;;;;;;10.63;9.48;;;;;;;;;;10341201;28;20484;-82
2023/09/03 05:12:40;;;;;;;13.82;9.50;;;;;;;;;;10340832;28;20781;-83
2023/09/03 05:17:44;;;;;;;13.00;9.43;;;;;;;;;;10339993;28;20423;-83
2023/09/03 05:22:46;;;;;;;12.13;9.02;;;;;;;;;;10339711;28;20450;-83
2023/09/03 05:27:49;;;;;;;11.82;8.65;;;;;;;;;;10339659;28;20930;-83
2023/09/03 05:32:53;;;;;;;11.05;9.27;;;;;;;;;;10338696;28;20425;-83
2023/09/03 05:37:55;;;;;;;12.23;9.05;;;;;;;;;;10340752;28;20417;-83
2023/09/03 05:42:57;;;;;;;13.25;9.25;;;;;;;;;;10333399;28;20413;-83
2023/09/03 05:48:01;;;;;;;11.77;9.02;;;;;;;;;;10338295;28;20514;-83
2023/09/03 05:53:03;;;;;;;11.57;8.25;;;;;;;;;;10340903;28;20436;-83
2023/09/03 05:58:06;;;;;;;10.30;8.60;;;;;;;;;;10339891;28;20489;-83
2023/09/03 06:03:10;;;;;;;9.70;8.30;;;;;;;;;;10337157;28;20413;-83
2023/09/03 06:08:12;;;;;;;10.65;8.15;;;;;;;;;;10331006;28;20793;-83
2023/09/03 06:13:14;;;;;;;10.05;8.18;;;;;;;;;;10339515;28;20415;-82
2023/09/03 06:18:18;;;;;;;9.98;8.93;;;;;;;;;;10334940;28;21315;-83
2023/09/03 06:23:21;;;;;;;11.20;9.02;;;;;;;;;;10335470;28;20411;-82
2023/09/03 06:28:26;;;;;;;11.73;8.20;;;;;;;;;;10340977;28;20531;-83
2023/09/03 06:33:30;;;;;;;12.43;8.65;;;;;;;;;;10325994;28;20436;-82
2023/09/03 06:38:32;;;;;;;9.70;8.10;;;;;;;;;;10336837;28;20452;-85
2023/09/03 06:43:34;;;;;;;10.45;8.75;;;;;;;;;;10334902;28;20500;-83
2023/09/03 06:48:38;;;;;;;9.63;7.80;;;;;;;;;;10332801;28;20465;-82
2023/09/03 06:53:40;;;;;;;10.68;7.35;;;;;;;;;;10338980;28;20979;-82
2023/09/03 06:58:43;;;;;;;9.20;7.30;;;;;;;;;;10335853;28;20466;-82
2023/09/03 07:03:46;;;;;;;11.25;7.40;;;;;;;;;;10331541;28;21006;-82
2023/09/03 07:08:49;;;;;;;8.88;7.10;;;;;;;;;;10337251;28;20428;-83
2023/09/03 07:13:51;;;;;;;7.68;6.82;;;;;;;;;;10331472;28;20420;-82
2023/09/03 07:18:55;;;;;;;8.60;7.20;;;;;;;;;;10328189;28;20905;-82
2023/09/03 07:23:57;;;;;;;7.65;6.15;;;;;;;;;;10337028;28;20475;-83
2023/09/03 07:28:59;;;;;;;8.30;6.32;;;;;;;;;;10335266;28;20515;-82
2023/09/03 07:34:03;;;;;;;6.20;5.60;;;;;;;;;;10331359;28;20517;-82
2023/09/03 07:39:06;;;;;;;5.57;5.05;;;;;;;;;;10331662;28;20482;-82
2023/09/03 07:44:08;;;;;;;6.90;5.30;;;;;;;;;;10336056;28;20415;-82
2023/09/03 07:49:12;;;;;;;6.57;4.57;;;;;;;;;;10327270;28;20521;-82
2023/09/03 07:54:15;;;;;;;9.50;4.70;;;;;;;;;;10327968;28;20503;-83
2023/09/03 07:59:18;;;;;;;5.00;4.50;;;;;;;;;;10332623;28;20444;-82
2023/09/03 08:04:22;;;;;;;6.40;4.68;;;;;;;;;;10327775;28;20460;-83
2023/09/03 08:09:24;;;;;;;5.00;4.50;;;;;;;;;;10337445;28;20515;-82
2023/09/03 08:14:26;;;;;;;6.07;4.30;;;;;;;;;;10331919;28;20448;-82
2023/09/03 08:19:30;;;;;;;5.47;4.30;;;;;;;;;;10347450;28;20442;-82
2023/09/03 08:24:33;;;;;;;5.85;4.35;;;;;;;;;;10340690;28;20784;-82
2023/09/03 08:29:35;;;;;;;7.33;4.73;;;;;;;;;;10338723;28;20995;-82
2023/09/03 08:34:39;;;;;;;6.55;4.38;;;;;;;;;;10342388;28;20536;-83
2023/09/03 08:39:41;;;;;;;5.20;4.53;;;;;;;;;;10337022;28;20912;-84
2023/09/03 08:44:49;;;;;;;5.38;4.50;;;;;;;;;;10338998;28;20417;-84
2023/09/03 08:49:53;;;;;;;7.32;4.57;;;;;;;;;;10339075;28;20490;-83
2023/09/03 08:54:57;;;;;;;7.25;4.30;;;;;;;;;;10340619;28;20423;-84
2023/09/03 08:59:59;;;;;;;4.43;4.00;;;;;;;;;;10299487;28;20463;-82
2023/09/03 09:05:06;;;;;;;5.63;4.60;;;;;;;;;;10293216;28;20436;-82
2023/09/03 09:10:11;;;;;;;7.10;4.97;;;;;;;;;;10291588;28;20454;-83
2023/09/03 09:15:13;;;;;;;4.97;4.47;;;;;;;;;;10287399;28;20497;-83
2023/09/03 09:20:19;;;;;;;7.25;6.03;;;;;;;;;;10290256;28;20871;-83
2023/09/03 09:25:23;;;;;;;5.70;5.15;;;;;;;;;;10282659;28;20458;-83
2023/09/03 09:30:26;;;;;;;5.47;4.90;;;;;;;;;;10279856;28;20534;-83
2023/09/03 09:35:30;;;;;;;5.80;5.25;;;;;;;;;;10283837;28;20495;-83
2023/09/03 09:40:34;;;;;;;7.63;5.03;;;;;;;;;;10279700;28;20914;-83
2023/09/03 09:45:46;;;;;;;6.13;4.95;;;;;;;;;;10285952;28;20847;-92
2023/09/03 09:50:50;;;;;;;6.40;4.47;;;;;;;;;;10285807;28;20464;-82
2023/09/03 09:55:59;;;;;;;5.65;4.30;;;;;;;;;;10278592;28;21170;-83
2023/09/03 10:01:02;;;;;;;5.27;4.60;;;;;;;;;;10302554;28;20551;-81
2023/09/03 10:06:07;;;;;;;5.20;4.70;;;;;;;;;;10316173;28;20890;-83
2023/09/03 10:11:10;;;;;;;5.47;4.43;;;;;;;;;;10326973;28;20493;-83
2023/09/03 10:16:13;;;;;;;5.30;4.80;;;;;;;;;;10318829;28;20531;-83
2023/09/03 10:21:21;;;;;;;5.82;5.03;;;;;;;;;;10316102;28;20457;-82
2023/09/03 10:26:28;;;;;;;5.70;5.10;;;;;;;;;;10314247;28;20453;-82
2023/09/03 10:31:32;;;;;;;5.88;4.95;;;;;;;;;;10315026;28;20519;-83
2023/09/03 10:36:37;;;;;;;5.82;4.88;;;;;;;;;;10316696;28;20913;-82
2023/09/03 10:41:40;;;;;;;6.65;4.93;;;;;;;;;;10316350;28;20444;-82
2023/09/03 10:47:00;;;;;;;5.63;5.07;;;;;;;;;;10318930;28;20530;-81
2023/09/03 10:52:04;;;;;;;6.68;4.50;;;;;;;;;;10314431;28;20592;-82
2023/09/03 10:57:18;;;;;;;5.63;4.55;;;;;;;;;;10327829;28;20478;-83
2023/09/03 11:02:25;;;;;;;5.47;4.97;;;;;;;;;;10318997;28;20483;-89
2023/09/03 11:07:29;;;;;;;6.77;4.47;;;;;;;;;;10326951;28;20447;-83
2023/09/03 11:12:35;;;;;;;4.60;4.05;;;;;;;;;;10321070;28;20907;-82
2023/09/03 11:17:37;;;;;;;5.13;4.63;;;;;;;;;;10324362;28;20468;-83
2023/09/03 11:22:41;;;;;;;5.80;4.73;;;;;;;;;;10322592;28;20464;-83
2023/09/03 11:27:49;;;;;;;5.10;4.40;;;;;;;;;;10324946;28;20869;-82
2023/09/03 11:32:51;;;;;;;5.65;4.70;;;;;;;;;;10322532;28;20480;-83
2023/09/03 11:37:55;;;;;;;5.63;4.50;;;;;;;;;;10318622;28;20849;-82
2023/09/03 11:42:58;;;;;;;7.32;4.75;;;;;;;;;;10321037;28;20457;-82
2023/09/03 11:48:02;;;;;;;5.77;4.90;;;;;;;;;;10332162;28;20972;-82
2023/09/03 11:53:08;;;;;;;7.45;5.10;;;;;;;;;;10337162;28;20452;-83
2023/09/03 11:58:13;;;;;;;5.32;4.82;;;;;;;;;;10340725;28;20444;-82
2023/09/03 12:03:16;;;;;;;5.03;4.50;;;;;;;;;;10332286;28;20506;-83
2023/09/03 12:08:20;;;;;;;5.93;4.97;;;;;;;;;;10337757;28;20456;-83
2023/09/03 12:13:32;;;;;;;6.33;5.07;;;;;;;;;;10335445;28;20468;-82
2023/09/03 12:18:35;;;;;;;7.30;4.40;;;;;;;;;;10315191;28;20460;-83
2023/09/03 12:23:45;;;;;;;6.15;4.82;;;;;;;;;;10320998;28;20483;-83
2023/09/03 12:28:47;;;;;;;6.00;4.70;;;;;;;;;;10311192;28;20499;-84
2023/09/03 12:33:50;;;;;;;5.80;4.47;;;;;;;;;;10314941;28;20834;-83
2023/09/03 12:38:56;;;;;;;7.30;4.43;;;;;;;;;;10324592;28;20929;-83
2023/09/03 12:44:06;;;;;;;5.10;4.60;;;;;;;;;;10324915;28;20545;-83
2023/09/03 12:49:08;;;;;;;5.05;4.50;;;;;;;;;;10332405;28;20444;-83
2023/09/03 12:54:12;;;;;;;4.88;4.45;;;;;;;;;;10328846;28;20520;-83
2023/09/03 12:59:15;;;;;;;6.13;4.77;;;;;;;;;;10323587;28;20835;-82
2023/09/03 13:04:17;;;;;;;7.37;4.60;;;;;;;;;;10328924;28;21300;-83
2023/09/03 13:09:21;;;;;;;6.43;4.23;;;;;;;;;;10336120;28;20451;-83
2023/09/03 13:14:23;;;;;;;5.10;4.15;;;;;;;;;;10324474;28;20447;-83
2023/09/03 13:19:25;;;;;;;4.87;4.10;;;;;;;;;;10328273;28;21303;-82
2023/09/03 13:24:29;;;;;;;5.80;5.03;;;;;;;;;;10328628;28;20448;-82
2023/09/03 13:29:31;;;;;;;4.45;4.05;;;;;;;;;;10329697;28;20548;-83
2023/09/03 13:34:34;;;;;;;4.57;4.00;;;;;;;;;;10325611;28;20451;-83
2023/09/03 13:39:37;;;;;;;5.07;4.57;;;;;;;;;;10313815;28;20452;-83
2023/09/03 13:44:40;;;;;;;4.78;4.35;;;;;;;;;;10315123;28;20839;-83
2023/09/03 13:49:42;;;;;;;5.83;4.10;;;;;;;;;;10323222;28;20928;-83
2023/09/03 13:54:49;;;;;;;4.38;3.97;;;;;;;;;;10329889;28;20412;-89
2023/09/03 13:59:51;;;;;;;4.70;4.30;;;;;;;;;;10324525;28;20452;-89
2023/09/03 14:04:54;;;;;;;6.57;4.40;;;;;;;;;;10322061;28;20448;-94
2023/09/03 14:09:57;;;;;;;4.70;4.03;;;;;;;;;;10315723;28;20912;-86
2023/09/03 14:15:00;;;;;;;4.75;4.13;;;;;;;;;;10357554;28;20479;-96
2023/09/03 14:20:03;;;;;;;4.63;4.22;;;;;;;;;;10345082;28;20424;-96
2023/09/03 14:25:08;;;;;;;5.72;4.40;;;;;;;;;;10342471;28;20415;-94
2023/09/03 14:30:11;;;;;;;4.43;4.03;;;;;;;;;;10331601;28;20421;-84
2023/09/03 14:35:14;;;;;;;4.47;4.07;;;;;;;;;;10319265;28;21189;-83
2023/09/03 14:40:18;;;;;;;4.50;4.10;;;;;;;;;;10322027;28;20475;-84
2023/09/03 14:45:20;;;;;;;5.05;4.20;;;;;;;;;;10323890;28;20468;-83
2023/09/03 14:50:23;;;;;;;6.43;4.20;;;;;;;;;;10329226;28;20451;-84
2023/09/03 14:55:26;;;;;;;4.50;4.10;;;;;;;;;;10329594;28;20447;-83
2023/09/03 15:00:29;;;;;;;5.82;4.47;;;;;;;;;;10319552;28;20428;-83
2023/09/03 15:05:31;;;;;;;6.13;4.40;;;;;;;;;;10322523;28;20518;-84
2023/09/03 15:10:35;;;;;;;5.07;4.40;;;;;;;;;;10325973;28;20479;-82
2023/09/03 15:15:39;;;;;;;4.90;4.07;;;;;;;;;;10319186;28;20452;-83
2023/09/03 15:20:53;;;;;;;5.50;4.30;;;;;;;;;;10324541;28;20456;-83
2023/09/03 15:25:57;;;;;;;4.90;4.22;;;;;;;;;;10314408;28;20499;-92
2023/09/03 15:30:59;;;;;;;5.83;4.20;;;;;;;;;;10317527;28;20494;-84
2023/09/03 15:36:05;;;;;;;5.00;4.50;;;;;;;;;;10312984;28;20487;-83
2023/09/03 15:41:08;;;;;;;4.10;3.80;;;;;;;;;;10322710;28;20483;-83
2023/09/03 15:46:12;;;;;;;4.90;4.40;;;;;;;;;;10319156;28;20448;-83
2023/09/03 15:51:14;;;;;;;4.60;4.13;;;;;;;;;;10317318;28;20460;-80
2023/09/03 15:56:18;;;;;;;4.38;3.97;;;;;;;;;;10311970;28;20541;-80
2023/09/03 16:01:20;;;;;;;5.10;4.20;;;;;;;;;;10316376;28;20452;-78
2023/09/03 16:06:23;;;;;;;4.53;4.13;;;;;;;;;;10312419;28;20448;-80
2023/09/03 16:11:26;;;;;;;6.00;5.37;;;;;;;;;;10312990;28;20472;-80
2023/09/03 16:16:29;;;;;;;4.80;4.40;;;;;;;;;;10313857;28;20455;-80
2023/09/03 16:21:32;;;;;;;5.28;4.82;;;;;;;;;;10310478;28;20513;-80
2023/09/03 16:26:37;;;;;;;6.00;4.65;;;;;;;;;;10307333;28;20496;-81
2023/09/03 16:31:39;;;;;;;5.10;4.70;;;;;;;;;;10314892;28;20464;-80
2023/09/03 16:36:43;;;;;;;5.53;4.75;;;;;;;;;;10318459;28;20475;-81
2023/09/03 16:41:47;;;;;;;5.47;4.97;;;;;;;;;;10318768;28;20479;-80
2023/09/03 16:46:49;;;;;;;8.80;6.90;;;;;;;;;;10324504;28;20934;-80
2023/09/03 16:51:52;;;;;;;6.57;5.90;;;;;;;;;;10333285;28;20532;-80
2023/09/03 16:56:55;;;;;;;7.30;5.63;;;;;;;;;;10320470;28;20461;-81
2023/09/03 17:01:59;;;;;;;7.00;6.32;;;;;;;;;;10318714;28;20921;-81
2023/09/03 17:07:01;;;;;;;7.63;6.00;;;;;;;;;;10323403;28;20450;-81
2023/09/03 17:12:06;;;;;;;7.00;5.38;;;;;;;;;;10335119;28;21028;-81
2023/09/03 17:17:08;;;;;;;6.03;5.50;;;;;;;;;;10325818;28;20551;-81
2023/09/03 17:22:11;;;;;;;6.13;5.33;;;;;;;;;;10326772;28;20455;-80
2023/09/03 17:27:15;;;;;;;10.45;8.50;;;;;;;;;;10336014;28;20495;-81
2023/09/03 17:32:18;;;;;;;6.37;5.63;;;;;;;;;;10334484;28;20574;-81
2023/09/03 17:37:20;;;;;;;10.10;8.50;;;;;;;;;;10331189;28;20451;-80
2023/09/03 17:42:24;;;;;;;10.68;7.88;;;;;;;;;;10334352;28;20616;-79
2023/09/03 17:47:26;;;;;;;11.03;7.93;;;;;;;;;;10328329;28;21106;-81
2023/09/03 17:52:28;;;;;;;12.43;7.95;;;;;;;;;;10325220;28;20459;-81
2023/09/03 17:57:33;;;;;;;13.18;8.80;;;;;;;;;;10328891;28;20455;-81
2023/09/03 18:02:35;;;;;;;12.90;9.40;;;;;;;;;;10331492;28;20464;-82
2023/09/03 18:07:38;;;;;;;14.45;11.05;;;;;;;;;;10332529;28;20492;-81
2023/09/03 18:12:41;;;;;;;26.37;20.07;;;;;;;;;;10329227;28;21154;-81
2023/09/03 18:17:44;;;;;;;20.63;14.93;;;;;;;;;;10331433;28;20866;-81
2023/09/03 18:22:46;;;;;;;17.35;13.75;;;;;;;;;;10336231;28;20484;-81
2023/09/03 18:27:50;;;;;;;21.63;15.55;;;;;;;;;;10337477;28;20421;-81
2023/09/03 18:32:52;;;;;;;19.13;13.38;;;;;;;;;;10336965;28;20491;-82
2023/09/03 18:37:54;;;;;;;12.82;10.65;;;;;;;;;;10338553;28;20415;-82
2023/09/03 18:42:58;;;;;;;11.35;9.98;;;;;;;;;;10336137;28;20477;-82
2023/09/03 18:48:00;;;;;;;21.03;16.17;;;;;;;;;;10341481;28;20804;-81
2023/09/03 18:53:03;;;;;;;17.63;14.20;;;;;;;;;;10326923;28;21157;-86
2023/09/03 18:58:07;;;;;;;11.97;8.73;;;;;;;;;;10329410;28;20440;-82
2023/09/03 19:03:10;;;;;;;10.47;7.70;;;;;;;;;;10318949;28;21243;-81
2023/09/03 19:08:12;;;;;;;9.03;7.07;;;;;;;;;;10313915;28;20526;-80
2023/09/03 19:13:16;;;;;;;15.13;10.80;;;;;;;;;;10326782;28;20848;-81
2023/09/03 19:18:22;;;;;;;11.50;8.50;;;;;;;;;;10331121;28;20927;-81
2023/09/03 19:23:24;;;;;;;20.33;13.47;;;;;;;;;;10326042;28;21421;-82
2023/09/03 19:28:28;;;;;;;8.77;7.80;;;;;;;;;;10316708;28;21037;-81
2023/09/03 19:33:30;;;;;;;15.38;11.07;;;;;;;;;;10325223;28;20537;-81
2023/09/03 19:38:33;;;;;;;8.40;7.18;;;;;;;;;;10316687;28;20456;-81
2023/09/03 19:43:36;;;;;;;13.77;11.40;;;;;;;;;;10325870;28;20959;-80
2023/09/03 19:48:41;;;;;;;7.18;6.03;;;;;;;;;;10317903;28;20487;-81
2023/09/03 19:53:43;;;;;;;9.07;7.20;;;;;;;;;;10328576;28;20955;-80
2023/09/03 19:58:50;;;;;;;8.85;7.10;;;;;;;;;;10331657;28;20468;-80
2023/09/03 20:03:52;;;;;;;8.05;6.90;;;;;;;;;;10331218;28;20451;-80
2023/09/03 20:08:54;;;;;;;7.60;6.80;;;;;;;;;;10332061;28;20456;-80
2023/09/03 20:13:59;;;;;;;9.27;7.30;;;;;;;;;;10336611;28;20460;-80
2023/09/03 20:19:02;;;;;;;7.68;6.97;;;;;;;;;;10337936;28;20842;-80
2023/09/03 20:24:05;;;;;;;7.05;6.30;;;;;;;;;;10339360;28;21214;-81
2023/09/03 20:29:09;;;;;;;6.60;5.90;;;;;;;;;;10333263;28;20470;-81
2023/09/03 20:34:11;;;;;;;5.70;5.20;;;;;;;;;;10336178;28;20467;-82
2023/09/03 20:39:14;;;;;;;7.53;5.00;;;;;;;;;;10332546;28;20927;-82
2023/09/03 20:44:18;;;;;;;5.30;4.80;;;;;;;;;;10328179;28;20614;-82
2023/09/03 20:49:20;;;;;;;5.75;5.25;;;;;;;;;;10326507;28;21197;-81
2023/09/03 20:54:24;;;;;;;6.78;5.88;;;;;;;;;;10329206;28;20511;-82
2023/09/03 20:59:28;;;;;;;6.53;5.45;;;;;;;;;;10328481;28;20469;-81
2023/09/03 21:04:32;;;;;;;7.78;6.72;;;;;;;;;;10327515;28;20452;-80
2023/09/03 21:09:34;;;;;;;7.70;6.90;;;;;;;;;;10330672;28;20916;-82
2023/09/03 21:14:38;;;;;;;7.20;6.50;;;;;;;;;;10322176;28;20900;-82
2023/09/03 21:19:40;;;;;;;7.35;6.65;;;;;;;;;;10312768;28;20451;-82
2023/09/03 21:24:42;;;;;;;10.13;6.77;;;;;;;;;;10316943;28;20452;-81
2023/09/03 21:29:46;;;;;;;7.95;7.15;;;;;;;;;;10325545;28;20481;-81
2023/09/03 21:34:49;;;;;;;7.82;6.82;;;;;;;;;;10323883;28;20630;-82
2023/09/03 21:39:51;;;;;;;7.13;6.32;;;;;;;;;;10319716;28;20452;-82
2023/09/03 21:44:55;;;;;;;7.15;6.45;;;;;;;;;;10325722;28;20616;-81
2023/09/03 21:49:57;;;;;;;6.53;5.93;;;;;;;;;;10326951;28;20449;-81
2023/09/03 21:54:59;;;;;;;5.97;5.22;;;;;;;;;;10328263;28;20504;-81
2023/09/03 22:00:06;;;;;;;6.10;5.18;;;;;;;;;;10330481;28;20431;-81
2023/09/03 22:05:09;;;;;;;5.67;5.10;;;;;;;;;;10330262;28;20816;-81
2023/09/03 22:10:11;;;;;;;5.70;5.00;;;;;;;;;;10327538;28;20511;-81
2023/09/03 22:15:15;;;;;;;5.40;4.90;;;;;;;;;;10332247;28;21176;-81
2023/09/03 22:20:17;;;;;;;5.60;5.00;;;;;;;;;;10331784;28;20441;-79
2023/09/03 22:25:20;;;;;;;5.68;5.13;;;;;;;;;;10334717;28;20409;-81
2023/09/03 22:30:24;;;;;;;4.85;4.45;;;;;;;;;;10337187;28;20448;-81
2023/09/03 22:35:26;;;;;;;6.27;4.57;;;;;;;;;;10333568;28;20460;-81
2023/09/03 22:40:29;;;;;;;5.87;4.50;;;;;;;;;;10321345;28;20448;-81
2023/09/03 22:45:32;;;;;;;5.15;4.70;;;;;;;;;;10323097;28;21177;-81
2023/09/03 22:50:35;;;;;;;5.80;5.30;;;;;;;;;;10331437;28;21009;-81
2023/09/03 22:55:38;;;;;;;6.22;5.63;;;;;;;;;;10332021;28;21005;-81
2023/09/03 23:00:41;;;;;;;7.70;6.03;;;;;;;;;;10330738;23;20456;-81
2023/09/03 23:05:45;;;;;;;6.00;5.40;;;;;;;;;;10334670;28;20438;-81
2023/09/03 23:10:47;;;;;;;6.68;6.03;;;;;;;;;;10333636;28;20853;-81
2023/09/03 23:15:51;;;;;;;6.57;5.80;;;;;;;;;;10333487;28;20457;-82
2023/09/03 23:20:56;;;;;;;5.90;5.20;;;;;;;;;;10340971;28;20419;-81
2023/09/03 23:25:58;;;;;;;5.47;4.93;;;;;;;;;;10333246;28;20462;-81
2023/09/03 23:31:02;;;;;;;5.32;4.82;;;;;;;;;;10334757;28;20450;-81
2023/09/03 23:36:04;;;;;;;5.32;4.82;;;;;;;;;;10333595;28;20858;-81
2023/09/03 23:41:07;;;;;;;6.40;5.20;;;;;;;;;;10334965;28;20876;-80
2023/09/03 23:46:10;;;;;;;5.93;4.72;;;;;;;;;;10334674;28;20457;-81
2023/09/03 23:51:13;;;;;;;5.53;4.97;;;;;;;;;;10338727;28;20504;-81
2023/09/03 23:56:15;;;;;;;5.43;4.78;;;;;;;;;;10334500;28;20558;-81
